Terminal Aerodrome Forecast
Issued by NWS

Home | Current Version | Previous Version | Text Only | Print | Product List | Glossary On
Versions: 1 2 3 4 5 6 7 8 9 10 11 12 13 14 15 16 17
000
FTUS41 KBOX 262325
TAFBAF
TAF
KBAF 262325Z 2700/2724 32004KT P6SM OVC035
     FM270200 33004KT P6SM OVC045
     FM271600 36005KT P6SM BKN040
     FM272000 06004KT P6SM BKN040
     FM272300 22004KT P6SM BKN035=

USA.gov is the U.S. government's official web portal to all federal, state and local government web resources and services.